createdAt,value
2023-04-14T00:02:08.567Z,100967.28
2023-04-14T00:04:35.898Z,100969.09
2023-04-14T00:07:02.821Z,100967.28
2023-04-14T00:09:30.241Z,100987.38
2023-04-14T00:11:57.813Z,100976.94
2023-04-14T00:14:24.520Z,100976.13
2023-04-14T00:16:51.367Z,100980.97
2023-04-14T00:19:18.035Z,100984.41
2023-04-14T00:21:44.693Z,100985.78
2023-04-14T00:24:11.261Z,100977.53
2023-04-14T00:26:37.994Z,100989.16
2023-04-14T00:29:04.704Z,100991.78
2023-04-14T00:31:31.458Z,100977.31
2023-04-14T00:33:58.073Z,100983.75
2023-04-14T00:36:24.704Z,100988.56
2023-04-14T00:38:51.359Z,100981.94
2023-04-14T00:41:18.072Z,100987.78
2023-04-14T00:43:44.702Z,100983.94
2023-04-14T00:46:14.424Z,100987.97
2023-04-14T00:48:41.621Z,100985.78
2023-04-14T00:51:09.173Z,100991.22
2023-04-14T00:53:36.211Z,100993.81
2023-04-14T00:56:02.895Z,100996.63
2023-04-14T00:58:30.459Z,100987.38
2023-04-14T01:00:58.369Z,101001.63
2023-04-14T01:03:26.376Z,101010.47
2023-04-14T01:05:53.072Z,101010.88
2023-04-14T01:08:21.881Z,101011.44
2023-04-14T01:11:07.009Z,101006.41
2023-04-14T01:13:45.427Z,101012.59
2023-04-14T01:16:22.322Z,101002.31
2023-04-14T01:18:56.142Z,101009.97
2023-04-14T01:21:33.146Z,101005.13
2023-04-14T01:24:23.992Z,101010.34
2023-04-14T01:27:03.239Z,100999.72
2023-04-14T01:29:44.746Z,101014.56
2023-04-14T01:32:14.826Z,101015.78
2023-04-14T01:34:51.095Z,101016.19
2023-04-14T01:37:37.532Z,101010.50
2023-04-14T01:40:14.297Z,101013.47
2023-04-14T01:42:46.641Z,101018.31
2023-04-14T01:45:26.704Z,101009.25
2023-04-14T01:47:55.165Z,101015.03
2023-04-14T01:50:23.454Z,101007.22
2023-04-14T01:52:54.295Z,101016.22
2023-04-14T01:55:23.487Z,101014.34
2023-04-14T01:57:52.655Z,101015.94
2023-04-14T02:00:21.363Z,101025.00
2023-04-14T02:02:52.255Z,101019.78
2023-04-14T02:05:21.705Z,101027.22
2023-04-14T02:07:50.040Z,101029.66
2023-04-14T02:10:19.355Z,101026.81
2023-04-14T02:12:48.317Z,101025.19
2023-04-14T02:15:17.360Z,101031.94
2023-04-14T02:17:46.945Z,101027.66
2023-04-14T02:20:14.842Z,101027.66
2023-04-14T02:22:41.833Z,101027.09
2023-04-14T02:25:08.997Z,101031.06
2023-04-14T02:27:54.492Z,101035.28
2023-04-14T02:30:42.441Z,101039.88
2023-04-14T02:33:11.646Z,101027.03
2023-04-14T02:36:16.952Z,101037.44
2023-04-14T02:38:47.766Z,101041.19
2023-04-14T02:41:23.601Z,101039.28
2023-04-14T02:44:13.012Z,101042.41
2023-04-14T02:46:43.529Z,101049.22
2023-04-14T02:49:13.483Z,101042.41
2023-04-14T02:51:43.926Z,101044.47
2023-04-14T02:54:10.705Z,101040.50
2023-04-14T02:56:40.056Z,101051.19
2023-04-14T02:59:07.675Z,101053.72
2023-04-14T03:01:37.212Z,101060.00
2023-04-14T03:04:04.370Z,101066.19
2023-04-14T03:06:32.086Z,101057.34
2023-04-14T03:09:00.634Z,101061.38
2023-04-14T03:11:29.339Z,101055.72
2023-04-14T03:13:57.655Z,101048.47
2023-04-14T03:16:26.270Z,101056.88
2023-04-14T03:18:54.662Z,101056.88
2023-04-14T03:21:22.050Z,101057.66
2023-04-14T03:23:51.613Z,101058.88
2023-04-14T03:26:20.674Z,101066.56
2023-04-14T03:28:51.167Z,101053.34
2023-04-14T03:31:21.183Z,101058.56
2023-04-14T03:33:49.154Z,101072.78
2023-04-14T03:36:17.193Z,101065.47
2023-04-14T03:38:45.847Z,101062.25
2023-04-14T03:41:17.766Z,101069.28
2023-04-14T03:43:45.770Z,101060.03
2023-04-14T03:46:13.401Z,101058.41
2023-04-14T03:48:44.330Z,101065.84
2023-04-14T03:51:14.159Z,101066.41
2023-04-14T03:53:43.313Z,101073.84
2023-04-14T03:56:13.608Z,101062.69
2023-04-14T03:58:44.163Z,101062.63
2023-04-14T04:01:12.550Z,101070.16
2023-04-14T04:03:42.671Z,101071.59
2023-04-14T04:06:09.820Z,101069.00
2023-04-14T04:08:37.975Z,101068.19
2023-04-14T04:11:07.515Z,101069.38
2023-04-14T04:13:37.984Z,101075.00
2023-04-14T04:16:06.974Z,101071.16
2023-04-14T04:18:38.197Z,101063.34
2023-04-14T04:21:06.255Z,101080.03
2023-04-14T04:23:34.813Z,101076.59
2023-04-14T04:26:02.112Z,101074.97
2023-04-14T04:28:28.959Z,101085.56
2023-04-14T04:30:57.123Z,101080.47
2023-04-14T04:33:24.067Z,101100.13
2023-04-14T04:35:52.709Z,101084.69
2023-04-14T04:38:19.403Z,101103.03
2023-04-14T04:40:48.343Z,101086.19
2023-04-14T04:43:17.320Z,101091.19
2023-04-14T04:45:59.196Z,101106.22
2023-04-14T04:48:25.944Z,101106.94
2023-04-14T04:50:52.648Z,101102.91
2023-04-14T04:53:19.286Z,101095.47
2023-04-14T04:55:46.131Z,101097.78
2023-04-14T04:58:12.766Z,101107.84
2023-04-14T05:00:39.471Z,101105.81
2023-04-14T05:03:08.750Z,101103.03
2023-04-14T05:05:36.775Z,101101.00
2023-04-14T05:08:03.825Z,101109.06
2023-04-14T05:10:30.496Z,101109.13
2023-04-14T05:12:57.146Z,101101.94
2023-04-14T05:15:23.860Z,101112.00
2023-04-14T05:17:50.838Z,101099.59
2023-04-14T05:20:17.600Z,101101.28
2023-04-14T05:22:44.124Z,101110.97
2023-04-14T05:25:10.854Z,101099.34
2023-04-14T05:27:37.441Z,101099.66
2023-04-14T05:30:04.284Z,101099.16
2023-04-14T05:32:31.062Z,101091.63
2023-04-14T05:34:59.161Z,101096.41
2023-04-14T05:37:26.011Z,101096.34
2023-04-14T05:39:52.496Z,101107.66
2023-04-14T05:42:18.969Z,101095.56
2023-04-14T05:44:45.858Z,101104.28
2023-04-14T05:47:12.608Z,101102.72
2023-04-14T05:49:39.113Z,101103.38
2023-04-14T05:52:05.748Z,101102.81
2023-04-14T05:54:32.342Z,101106.38
2023-04-14T05:56:58.796Z,101097.88
2023-04-14T05:59:25.707Z,101091.84
2023-04-14T06:01:52.297Z,101091.88
2023-04-14T06:04:19.090Z,101089.13
2023-04-14T06:06:45.748Z,101095.09
2023-04-14T06:09:12.228Z,101091.06
2023-04-14T06:11:39.921Z,101085.03
2023-04-14T06:14:10.565Z,101082.38
2023-04-14T06:16:37.244Z,101082.06
2023-04-14T06:19:04.174Z,101083.13
2023-04-14T06:21:31.855Z,101087.44
2023-04-14T06:24:00.849Z,101077.25
2023-04-14T06:26:35.281Z,101083.22
2023-04-14T06:29:02.295Z,101078.41
2023-04-14T06:31:29.182Z,101087.38
2023-04-14T06:33:56.156Z,101080.81
2023-04-14T06:36:22.901Z,101081.91
2023-04-14T06:38:49.460Z,101084.78
2023-04-14T06:41:16.017Z,101093.28
2023-04-14T06:43:42.946Z,101084.66
2023-04-14T06:46:19.447Z,101074.44
2023-04-14T06:48:50.953Z,101069.09
2023-04-14T06:51:18.556Z,101064.28
2023-04-14T06:53:45.112Z,101074.19
2023-04-14T06:56:11.708Z,101074.59
2023-04-14T06:58:38.367Z,101075.41
2023-04-14T07:01:05.459Z,101070.94
2023-04-14T07:03:32.315Z,101077.34
2023-04-14T07:06:11.636Z,101070.03
2023-04-14T07:08:40.597Z,101065.09
2023-04-14T07:11:11.005Z,101067.19
2023-04-14T07:13:38.628Z,101064.06
2023-04-14T07:16:08.529Z,101060.34
2023-04-14T07:18:35.616Z,101063.84
2023-04-14T07:21:08.619Z,101063.38
2023-04-14T07:23:35.208Z,101050.84
2023-04-14T07:26:02.899Z,101045.03
2023-04-14T07:28:29.540Z,101042.09
2023-04-14T07:30:56.815Z,101047.59
2023-04-14T07:33:24.067Z,101051.50
2023-04-14T07:36:02.956Z,101056.88
2023-04-14T07:38:32.387Z,101047.31
2023-04-14T07:40:59.296Z,101051.84
2023-04-14T07:43:25.755Z,101053.88
2023-04-14T07:45:53.124Z,101049.22
2023-04-14T07:48:21.466Z,101053.19
2023-04-14T07:50:50.053Z,101050.78
2023-04-14T07:53:16.711Z,101053.75
2023-04-14T07:55:43.237Z,101053.94
2023-04-14T07:58:09.791Z,101048.28
2023-04-14T08:00:36.308Z,101050.44
2023-04-14T08:03:03.349Z,101053.94
2023-04-14T08:05:30.124Z,101050.69
2023-04-14T08:07:56.713Z,101046.22
2023-04-14T08:10:23.224Z,101050.44
2023-04-14T08:12:49.751Z,101047.25
2023-04-14T08:15:16.419Z,101041.28
2023-04-14T08:17:42.927Z,101044.44
2023-04-14T08:20:09.921Z,101051.00
2023-04-14T08:22:36.878Z,101042.94
2023-04-14T08:25:03.484Z,101046.81
2023-04-14T08:27:29.999Z,101041.94
2023-04-14T08:29:56.473Z,101049.63
2023-04-14T08:32:23.032Z,101044.06
2023-04-14T08:35:37.480Z,101049.09
2023-04-14T08:37:36.236Z,101051.44
2023-04-14T08:40:03.047Z,101053.38
2023-04-14T08:42:29.546Z,101051.97
2023-04-14T08:44:56.062Z,101051.72
2023-04-14T08:47:22.983Z,101054.81
2023-04-14T08:50:22.366Z,101045.78
2023-04-14T08:52:53.357Z,101044.28
2023-04-14T08:55:20.381Z,101050.34
2023-04-14T08:57:49.157Z,101046.47
2023-04-14T09:00:16.126Z,101042.19
2023-04-14T09:02:43.494Z,101040.16
2023-04-14T09:05:11.588Z,101033.75
2023-04-14T09:07:38.595Z,101033.50
2023-04-14T09:10:06.037Z,101033.75
2023-04-14T09:12:32.593Z,101032.94
2023-04-14T09:14:59.327Z,101031.75
2023-04-14T09:17:28.245Z,101030.91
2023-04-14T09:20:36.793Z,101027.91
2023-04-14T09:22:41.756Z,101025.81
2023-04-14T09:25:09.679Z,101029.53
2023-04-14T09:27:36.318Z,101020.00
2023-04-14T09:32:31.139Z,101018.94
2023-04-14T09:34:58.609Z,101016.75
2023-04-14T09:37:26.123Z,101014.56
2023-04-14T09:39:55.479Z,101021.63
2023-04-14T09:42:37.743Z,101016.75
2023-04-14T09:45:05.646Z,101022.94
2023-04-14T09:47:33.183Z,101024.31
2023-04-14T09:50:03.230Z,101012.06
2023-04-14T09:52:40.812Z,101018.19
2023-04-14T09:55:10.537Z,101017.00
2023-04-14T09:57:38.383Z,101008.03
2023-04-14T10:00:20.707Z,101007.50
2023-04-14T10:02:52.384Z,101003.16
2023-04-14T10:05:20.060Z,101007.81
2023-04-14T10:07:46.626Z,101011.66
2023-04-14T10:10:13.770Z,101000.56
2023-04-14T10:12:44.329Z,101003.22
2023-04-14T10:15:12.589Z,100994.75
2023-04-14T10:17:39.724Z,100988.06
2023-04-14T10:20:07.110Z,100986.50
2023-04-14T10:22:33.757Z,100982.66
2023-04-14T10:25:01.565Z,100983.41
2023-04-14T10:27:30.354Z,100978.09
2023-04-14T10:29:57.544Z,100976.56
2023-04-14T10:32:26.704Z,100979.50
2023-04-14T10:35:05.448Z,100975.72
2023-04-14T10:37:33.167Z,100965.38
2023-04-14T10:40:01.914Z,100967.25
2023-04-14T10:42:32.853Z,100968.31
2023-04-14T10:45:05.809Z,100971.22
2023-04-14T10:47:32.799Z,100961.69
2023-04-14T10:50:10.530Z,100973.88
2023-04-14T10:52:38.131Z,100968.84
2023-04-14T10:55:09.872Z,100966.19
2023-04-14T10:57:40.441Z,100971.00
2023-04-14T11:00:21.999Z,100968.56
2023-04-14T11:03:02.652Z,100968.50
2023-04-14T11:05:32.804Z,100968.47
2023-04-14T11:08:02.844Z,100963.75
2023-04-14T11:10:33.215Z,100962.72
2023-04-14T11:13:11.908Z,100954.25
2023-04-14T11:15:48.569Z,100950.78
2023-04-14T11:18:20.832Z,100955.25
2023-04-14T11:20:47.614Z,100953.66
2023-04-14T11:23:16.346Z,100945.19
2023-04-14T11:25:43.048Z,100955.31
2023-04-14T11:28:10.401Z,100942.25
2023-04-14T11:30:37.632Z,100955.00
2023-04-14T11:33:04.160Z,100941.22
2023-04-14T11:35:31.365Z,100953.19
2023-04-14T11:37:59.851Z,100955.28
2023-04-14T11:40:27.479Z,100955.03
2023-04-14T11:42:56.494Z,100939.88
2023-04-14T11:45:27.777Z,100954.50
2023-04-14T11:48:01.453Z,100945.19
2023-04-14T11:50:31.465Z,100939.09
2023-04-14T11:53:00.049Z,100946.53
2023-04-14T11:55:27.658Z,100943.34
2023-04-14T11:57:55.651Z,100954.22
2023-04-14T12:00:22.806Z,100939.38
2023-04-14T12:02:49.895Z,100942.28
2023-04-14T12:05:31.696Z,100944.38
2023-04-14T12:07:59.785Z,100936.75
2023-04-14T12:10:27.675Z,100941.00
2023-04-14T12:13:02.083Z,100937.25
2023-04-14T12:15:31.088Z,100938.88
2023-04-14T12:17:58.751Z,100939.38
2023-04-14T12:20:27.096Z,100944.13
2023-04-14T12:23:02.064Z,100931.63
2023-04-14T12:25:34.892Z,100928.38
2023-04-14T12:28:06.759Z,100933.03
2023-04-14T12:30:34.347Z,100926.63
2023-04-14T12:33:09.944Z,100937.25
2023-04-14T12:35:37.329Z,100936.28
2023-04-14T12:38:14.560Z,100930.78
2023-04-14T12:40:49.661Z,100928.50
2023-04-14T12:43:28.291Z,100927.53
2023-04-14T12:45:55.423Z,100920.09
2023-04-14T12:48:22.494Z,100912.78
2023-04-14T12:50:50.524Z,100918.09
2023-04-14T12:53:26.143Z,100905.56
2023-04-14T12:56:08.516Z,100916.56
2023-04-14T12:58:39.963Z,100906.75
2023-04-14T13:01:11.244Z,100909.50
2023-04-14T13:03:47.003Z,100908.53
2023-04-14T13:06:18.132Z,100914.47
2023-04-14T13:08:46.305Z,100901.84
2023-04-14T13:11:14.116Z,100905.94
2023-04-14T13:13:40.956Z,100899.47
2023-04-14T13:16:14.807Z,100897.00
2023-04-14T13:18:43.818Z,100897.00
2023-04-14T13:21:10.712Z,100902.63
2023-04-14T13:23:37.192Z,100890.91
2023-04-14T13:26:04.046Z,100893.91
2023-04-14T13:28:30.640Z,100892.25
2023-04-14T13:30:58.210Z,100885.47
2023-04-14T13:33:25.844Z,100897.31
2023-04-14T13:35:53.548Z,100886.72
2023-04-14T13:38:20.162Z,100891.41
2023-04-14T13:40:48.269Z,100881.72
2023-04-14T13:43:16.555Z,100884.22
2023-04-14T13:45:43.193Z,100873.31
2023-04-14T13:48:09.674Z,100879.25
2023-04-14T13:50:36.286Z,100879.59
2023-04-14T13:53:03.164Z,100885.25
2023-04-14T13:55:29.832Z,100873.78
2023-04-14T13:57:56.396Z,100871.50
2023-04-14T14:00:23.131Z,100865.28
2023-04-14T14:02:49.747Z,100864.72
2023-04-14T14:05:16.479Z,100865.75
2023-04-14T14:07:43.264Z,100853.16
2023-04-14T14:10:10.915Z,100864.19
2023-04-14T14:12:37.775Z,100858.13
2023-04-14T14:15:05.573Z,100853.09
2023-04-14T14:17:32.622Z,100860.47
2023-04-14T14:19:59.532Z,100848.50
2023-04-14T14:22:26.352Z,100843.78
2023-04-14T14:25:10.894Z,100844.63
2023-04-14T14:27:44.838Z,100845.69
2023-04-14T14:30:11.792Z,100853.59
2023-04-14T14:32:38.327Z,100843.28
2023-04-14T14:35:05.091Z,100844.34
2023-04-14T14:37:31.602Z,100835.53
2023-04-14T14:39:58.061Z,100829.44
2023-04-14T14:42:24.689Z,100831.53
2023-04-14T14:44:51.537Z,100832.94
2023-04-14T14:47:18.140Z,100819.88
2023-04-14T14:49:56.613Z,100820.13
2023-04-14T14:52:29.707Z,100825.16
2023-04-14T14:54:56.385Z,100820.63
2023-04-14T14:57:23.036Z,100821.44
2023-04-14T14:59:49.473Z,100826.97
2023-04-14T15:02:17.045Z,100812.09
2023-04-14T15:04:43.828Z,100819.00
2023-04-14T15:07:10.504Z,100816.66
2023-04-14T15:09:37.286Z,100810.63
2023-04-14T15:12:03.928Z,100802.16
2023-04-14T15:14:30.565Z,100813.28
2023-04-14T15:16:57.234Z,100802.34
2023-04-14T15:19:24.156Z,100799.09
2023-04-14T15:21:54.099Z,100802.00
2023-04-14T15:24:20.818Z,100806.72
2023-04-14T15:26:47.461Z,100800.41
2023-04-14T15:29:13.925Z,100803.41
2023-04-14T15:31:40.427Z,100811.44
2023-04-14T15:34:07.741Z,100815.16
2023-04-14T15:36:34.348Z,100809.03
2023-04-14T15:39:01.092Z,100814.91
2023-04-14T15:41:27.583Z,100809.59
2023-04-14T15:43:54.378Z,100814.63
2023-04-14T15:46:21.240Z,100819.97
2023-04-14T15:48:47.722Z,100819.97
2023-04-14T15:51:14.266Z,100815.22
2023-04-14T15:53:40.759Z,100816.53
2023-04-14T15:56:07.269Z,100815.47
2023-04-14T15:58:34.655Z,100813.34
2023-04-14T16:01:06.808Z,100813.34
2023-04-14T16:03:33.626Z,100819.94
2023-04-14T16:06:04.255Z,100813.03
2023-04-14T16:08:30.851Z,100821.28
2023-04-14T16:10:57.506Z,100819.94
2023-04-14T16:13:23.993Z,100817.56
2023-04-14T16:15:50.625Z,100816.75
2023-04-14T16:18:17.224Z,100825.25
2023-04-14T16:20:43.829Z,100818.34
2023-04-14T16:23:10.365Z,100820.50
2023-04-14T16:25:36.907Z,100816.81
2023-04-14T16:28:03.501Z,100810.44
2023-04-14T16:30:31.653Z,100813.88
2023-04-14T16:32:58.274Z,100813.59
2023-04-14T16:35:25.764Z,100809.38
2023-04-14T16:37:53.221Z,100813.34
2023-04-14T16:40:19.705Z,100808.31
2023-04-14T16:42:47.268Z,100813.63
2023-04-14T16:45:13.936Z,100810.69
2023-04-14T16:47:40.574Z,100817.31
2023-04-14T16:50:07.754Z,100809.91
2023-04-14T16:52:35.095Z,100813.09
2023-04-14T16:55:01.976Z,100820.00
2023-04-14T16:57:28.521Z,100814.41
2023-04-14T16:59:55.071Z,100824.75
2023-04-14T17:02:21.828Z,100821.06
2023-04-14T17:04:48.779Z,100817.31
2023-04-14T17:07:15.450Z,100818.66
2023-04-14T17:09:42.832Z,100818.66
2023-04-14T17:12:09.736Z,100815.47
2023-04-14T17:14:37.188Z,100821.06
2023-04-14T17:17:04.026Z,100825.28
2023-04-14T17:19:30.605Z,100817.06
2023-04-14T17:21:57.470Z,100818.13
2023-04-14T17:24:24.063Z,100816.53
2023-04-14T17:26:51.208Z,100821.59
2023-04-14T17:29:17.695Z,100833.78
2023-04-14T17:31:44.570Z,100831.38
2023-04-14T17:34:11.910Z,100830.34
2023-04-14T17:36:59.008Z,100825.84
2023-04-14T17:39:27.543Z,100838.56
2023-04-14T17:41:56.010Z,100834.84
2023-04-14T17:44:32.705Z,100837.50
2023-04-14T17:47:03.638Z,100839.63
2023-04-14T17:49:30.702Z,100844.41
2023-04-14T17:51:57.870Z,100838.81
2023-04-14T17:54:25.041Z,100850.50
2023-04-14T17:56:51.647Z,100849.69
2023-04-14T17:59:18.504Z,100848.63
2023-04-14T18:01:45.262Z,100847.28
2023-04-14T18:04:12.022Z,100849.41
2023-04-14T18:06:39.072Z,100851.81
2023-04-14T18:09:05.604Z,100857.91
2023-04-14T18:11:32.092Z,100854.97
2023-04-14T18:13:58.932Z,100852.09
2023-04-14T18:16:25.536Z,100864.00
2023-04-14T18:18:52.067Z,100858.16
2023-04-14T18:21:18.728Z,100857.63
2023-04-14T18:23:45.324Z,100861.03
2023-04-14T18:28:41.546Z,100871.34
2023-04-14T18:31:08.610Z,100867.59
2023-04-14T18:33:35.264Z,100876.06
2023-04-14T18:36:02.321Z,100880.81
2023-04-14T18:38:28.951Z,100883.72
2023-04-14T18:41:04.928Z,100874.44
2023-04-14T18:43:32.751Z,100872.78
2023-04-14T18:45:59.749Z,100879.38
2023-04-14T18:48:26.383Z,100886.53
2023-04-14T18:51:06.874Z,100885.47
2023-04-14T18:53:34.128Z,100887.81
2023-04-14T18:56:01.643Z,100897.59
2023-04-14T18:58:30.316Z,100897.56
2023-04-14T19:00:57.378Z,100898.53
2023-04-14T19:03:24.282Z,100906.47
2023-04-14T19:05:50.950Z,100898.53
2023-04-14T19:08:17.408Z,100899.56
2023-04-14T19:10:47.726Z,100916.50
2023-04-14T19:13:15.391Z,100910.66
2023-04-14T19:15:42.879Z,100922.31
2023-04-14T19:18:10.565Z,100917.78
2023-04-14T19:20:37.790Z,100912.44
2023-04-14T19:23:04.536Z,100920.88
2023-04-14T19:25:31.121Z,100926.72
2023-04-14T19:27:58.514Z,100922.72
2023-04-14T19:30:25.080Z,100928.56
2023-04-14T19:32:53.362Z,100925.13
2023-04-14T19:35:20.542Z,100926.50
2023-04-14T19:37:47.082Z,100923.34
2023-04-14T19:40:13.930Z,100930.78
2023-04-14T19:42:41.121Z,100934.78
2023-04-14T19:45:08.267Z,100925.00
2023-04-14T19:47:34.983Z,100936.03
2023-04-14T19:50:02.512Z,100946.03
2023-04-14T19:52:28.990Z,100936.16
2023-04-14T19:54:56.808Z,100938.81
2023-04-14T19:57:23.988Z,100938.56
2023-04-14T19:59:50.469Z,100938.00
2023-04-14T20:02:17.080Z,100942.19
2023-04-14T20:04:45.078Z,100939.44
2023-04-14T20:07:11.676Z,100936.69
2023-04-14T20:09:39.853Z,100929.81
2023-04-14T20:12:06.387Z,100932.59
2023-04-14T20:14:33.025Z,100933.28
2023-04-14T20:16:59.707Z,100936.56
2023-04-14T20:19:26.310Z,100925.06
2023-04-14T20:21:52.866Z,100945.63
2023-04-14T20:24:20.076Z,100932.22
2023-04-14T20:26:46.712Z,100930.31
2023-04-14T20:29:13.202Z,100939.53
2023-04-14T20:31:41.655Z,100931.97
2023-04-14T20:34:09.823Z,100936.16
2023-04-14T20:36:37.556Z,100939.19
2023-04-14T20:39:05.776Z,100945.13
2023-04-14T20:41:33.893Z,100941.56
2023-04-14T20:44:00.850Z,100943.56
2023-04-14T20:46:27.952Z,100940.13
2023-04-14T20:48:54.577Z,100942.16
2023-04-14T20:51:21.304Z,100930.47
2023-04-14T20:53:47.881Z,100934.41
2023-04-14T20:56:14.492Z,100929.03
2023-04-14T20:58:41.037Z,100933.06
2023-04-14T21:01:07.698Z,100938.00
2023-04-14T21:03:34.882Z,100932.50
2023-04-14T21:06:02.000Z,100937.44
2023-04-14T21:08:29.769Z,100935.75
2023-04-14T21:11:14.407Z,100939.00
2023-04-14T21:15:29.553Z,100940.19
2023-04-14T21:16:29.951Z,100932.81
2023-04-14T21:18:57.506Z,100934.19
2023-04-14T21:21:24.068Z,100936.72
2023-04-14T21:23:50.825Z,100933.75
2023-04-14T21:26:17.743Z,100936.56
2023-04-14T21:28:44.368Z,100932.88
2023-04-14T21:31:11.474Z,100933.34
2023-04-14T21:33:39.956Z,100931.91
2023-04-14T21:36:07.086Z,100929.84
2023-04-14T21:38:33.705Z,100927.88
2023-04-14T21:41:00.291Z,100937.06
2023-04-14T21:43:26.791Z,100929.16
2023-04-14T21:45:54.323Z,100941.44
2023-04-14T21:48:20.860Z,100939.84
2023-04-14T21:50:47.508Z,100943.38
2023-04-14T21:53:14.137Z,100948.19
2023-04-14T21:55:41.544Z,100950.00
2023-04-14T21:58:09.118Z,100944.50
2023-04-14T22:00:37.194Z,100950.47
2023-04-14T22:03:04.012Z,100941.69
2023-04-14T22:05:30.778Z,100941.34
2023-04-14T22:07:57.270Z,100957.56
2023-04-14T22:10:23.816Z,100950.34
2023-04-14T22:12:50.870Z,100951.84
2023-04-14T22:15:17.513Z,100953.53
2023-04-14T22:17:44.836Z,100947.56
2023-04-14T22:20:11.966Z,100963.94
2023-04-14T22:22:38.463Z,100957.53
2023-04-14T22:25:05.381Z,100960.47
2023-04-14T22:27:33.892Z,100961.72
2023-04-14T22:30:01.447Z,100960.66
2023-04-14T22:32:28.266Z,100960.16
2023-04-14T22:34:54.769Z,100970.22
2023-04-14T22:37:21.453Z,100968.75
2023-04-14T22:39:48.021Z,100971.16
2023-04-14T22:42:14.471Z,100976.16
2023-04-14T22:44:41.213Z,100975.78
2023-04-14T22:47:07.713Z,100976.72
2023-04-14T22:49:34.136Z,100984.47
2023-04-14T22:52:00.876Z,100975.41
2023-04-14T22:54:27.429Z,100971.03
2023-04-14T22:56:53.971Z,100987.81
2023-04-14T22:59:20.483Z,100983.00
2023-04-14T23:01:47.881Z,100986.84
2023-04-14T23:04:14.735Z,100984.94
2023-04-14T23:06:41.324Z,100982.53
2023-04-14T23:09:07.865Z,100979.63
2023-04-14T23:11:34.488Z,100993.53
2023-04-14T23:14:00.951Z,100985.97
2023-04-14T23:16:27.526Z,100990.13
2023-04-14T23:18:54.022Z,100998.06
2023-04-14T23:21:23.819Z,100992.63
2023-04-14T23:23:51.127Z,100998.25
2023-04-14T23:26:19.582Z,100989.69
2023-04-14T23:28:46.332Z,101003.66
2023-04-14T23:31:13.442Z,101003.19
2023-04-14T23:33:40.456Z,101008.78
2023-04-14T23:36:07.721Z,101010.97
2023-04-14T23:38:38.825Z,100997.94
2023-04-14T23:41:05.727Z,101000.34
2023-04-14T23:43:32.714Z,101006.72
2023-04-14T23:45:59.384Z,101005.69
2023-04-14T23:48:26.779Z,101004.31
2023-04-14T23:51:01.998Z,101004.69
2023-04-14T23:53:39.879Z,101005.81
2023-04-14T23:56:06.903Z,101005.81
2023-04-14T23:58:33.720Z,101003.41
